Getzville 2E NY

43° 01' 25"N, 78° 44' 55"W, Elevation 589 ft.
Eastern Time

Hourly observations for the last 72 hours

Date Time Temperature (°F) Humi-
dity

(%)
Wind
(mph)
Pressure Rain (in) Sun
(W/m2)
ET
(in)
Air Dew 6 Hour 1 Hr 3 Hr 6 Hr Day
Alt
(in)
Sea
Level

(mb)
Max Min
17 13:00 85.4 60.4 43 NNE 4 G 8 30.02 1016.8 0.00 932 0.099
17 12:00 84.2 62.4 48 ENE 2 G 8 30.04 1017.4 0.00 905 0.074
17 11:00 82.7 59.2 45 SE 4 G 6 30.05 1017.8 0.00 872 0.052
17 10:00 79.9 58.5 48 S 2 G 5 30.04 1017.4 0.00 751 0.033
17 09:00 75.6 62.1 63 SSE 3 G 6 30.04 1017.3 0.00 605 0.019
17 08:00 68.5 60.3 68.5 50.5 75 NNW 1 G 2 30.03 1016.8 0.00 441 0.011
17 07:00 58.7 56.4 92 Calm 30.03 1016.9 0.00 250 0.007
17 06:00 51.5 50.4 96 Calm 30.01 1016.3 0.00 33 0.007
17 05:00 50.7 49.6 96 Calm 30.00 1015.8 0.00 0 0.007
17 04:00 51.5 50.4 96 Calm 29.98 1015.2 0.00 0 0.007
17 03:00 52.2 50.8 95 Calm 29.98 1015.2 0.00 0 0.007
17 02:00 53.0 51.6 69.8 53.0 95 Calm 29.97 1015.1 0.00 0 0.007
17 01:00 54.6 52.9 94 Calm 29.98 1015.2 0.00 0 0.007
17 00:00 56.4 54.7 94 Calm 29.98 1015.2 0.00 0 0.007
16 23:00 58.8 56.2 91 Calm 29.97 1014.9 0.00 0 0.007
16 22:00 61.7 58.1 88 Calm 29.96 1014.7 0.00 0 0.007
16 21:00 65.8 59.8 81 N 1 G 3 29.93 1013.7 0.00 0 0.007
16 20:00 69.8 62.3 83.6 69.8 77 NNE 1 G 2 29.92 1013.1 0.00 12 0.006
16 19:00 79.5 60.4 52 NNE 2 G 7 29.90 1012.7 0.00 197 0.000
16 18:00 79.1 61.1 54 E 1 G 3 29.90 1012.6 0.00 179 0.049
16 17:00 81.6 56.3 42 E 2 G 6 29.90 1012.6 0.00 285 0.039
16 16:00 83.2 56.4 40 E 4 G 9 29.90 1012.5 0.00 429 0.020
16 15:00 82.9 54.7 38 ENE 2 G 11 29.90 1012.6 0.00 485 0.000

Data generated by WxSolution Version 1.9.1.5, Build 2018.05.20.